KISM/ISM METAR and TAF weather

Enter ICAO airport designator
Station Type Date Time Source
KISM METAR 2019/02/18 03:56 UTC NOAA

KISM 180356Z AUTO 22004KT 10SM CLR 22/17 A3003 RMK AO2 SLP170 T02170172 PNO $


Station Type Date Time Source
KISM Decoded METAR 2019/02/18 03:56 UTC NOAA

Orlando, Kissimmee Municipal Airport, FL, United States (KISM) 28-17-23N 081-26-14W
Feb 17, 2019 - 10:56 PM EST / 2019.02.18 0356 UTC
Wind: from the SW (220 degrees) at 5 MPH (4 KT):0
Visibility: 10 mile(s):0
Sky conditions: clear
Temperature: 71.1 F (21.7 C)
Dew Point: 63.0 F (17.2 C)
Relative Humidity: 75%
Pressure (altimeter): 30.03 in. Hg (1016 hPa)
ob: KISM 180356Z AUTO 22004KT 10SM CLR 22/17 A3003 RMK AO2 SLP170 T02170172 PNO
cycle: 4

Station Type Date Time Source
KISM TAF 2019/02/17 18:36 UTC NOAA

TAF KISM 171735Z 1718/1818 18009KT P6SM SCT040
FM180000 19005KT P6SM FEW040 FEW250
FM181400 22007KT P6SM SCT035 BKN050


Example: see airport list